sensor_id;sensor_type;location;lat;lon;timestamp;P1;durP1;ratioP1;P2;durP2;ratioP2
25057;SDS011;13057;50.978;11.034;2022-11-20T00:02:23;26.17;;;14.23;;
25057;SDS011;13057;50.978;11.034;2022-11-20T00:04:49;23.48;;;13.55;;
25057;SDS011;13057;50.978;11.034;2022-11-20T00:07:14;21.90;;;13.65;;
25057;SDS011;13057;50.978;11.034;2022-11-20T00:09:40;21.80;;;13.00;;
25057;SDS011;13057;50.978;11.034;2022-11-20T00:12:06;22.00;;;13.40;;
25057;SDS011;13057;50.978;11.034;2022-11-20T00:14:32;20.85;;;13.10;;
25057;SDS011;13057;50.978;11.034;2022-11-20T00:16:58;24.27;;;15.18;;
25057;SDS011;13057;50.978;11.034;2022-11-20T00:19:24;23.98;;;14.60;;
25057;SDS011;13057;50.978;11.034;2022-11-20T00:21:52;20.27;;;12.90;;
25057;SDS011;13057;50.978;11.034;2022-11-20T00:24:20;21.90;;;12.93;;
25057;SDS011;13057;50.978;11.034;2022-11-20T00:26:46;24.27;;;13.35;;
25057;SDS011;13057;50.978;11.034;2022-11-20T00:29:12;20.58;;;12.65;;
25057;SDS011;13057;50.978;11.034;2022-11-20T00:31:38;20.88;;;13.43;;
25057;SDS011;13057;50.978;11.034;2022-11-20T00:34:04;21.35;;;14.05;;
25057;SDS011;13057;50.978;11.034;2022-11-20T00:36:31;23.58;;;13.68;;
25057;SDS011;13057;50.978;11.034;2022-11-20T00:38:58;21.98;;;12.95;;
25057;SDS011;13057;50.978;11.034;2022-11-20T00:41:25;21.67;;;13.52;;
25057;SDS011;13057;50.978;11.034;2022-11-20T00:43:53;21.73;;;13.48;;
25057;SDS011;13057;50.978;11.034;2022-11-20T00:46:20;21.63;;;13.25;;
25057;SDS011;13057;50.978;11.034;2022-11-20T00:48:48;24.08;;;14.05;;
25057;SDS011;13057;50.978;11.034;2022-11-20T00:51:16;22.73;;;13.77;;
25057;SDS011;13057;50.978;11.034;2022-11-20T00:53:44;22.67;;;14.18;;
25057;SDS011;13057;50.978;11.034;2022-11-20T00:56:11;21.30;;;13.05;;
25057;SDS011;13057;50.978;11.034;2022-11-20T00:58:39;23.10;;;13.75;;
25057;SDS011;13057;50.978;11.034;2022-11-20T01:01:11;23.13;;;14.02;;
25057;SDS011;13057;50.978;11.034;2022-11-20T01:03:39;21.83;;;12.85;;
25057;SDS011;13057;50.978;11.034;2022-11-20T01:06:09;22.38;;;13.65;;
25057;SDS011;13057;50.978;11.034;2022-11-20T01:08:36;22.70;;;13.40;;
25057;SDS011;13057;50.978;11.034;2022-11-20T01:11:05;22.90;;;13.52;;
25057;SDS011;13057;50.978;11.034;2022-11-20T01:13:32;21.08;;;12.93;;
25057;SDS011;13057;50.978;11.034;2022-11-20T01:16:05;23.23;;;13.65;;
25057;SDS011;13057;50.978;11.034;2022-11-20T01:18:34;26.48;;;14.43;;
25057;SDS011;13057;50.978;11.034;2022-11-20T01:21:01;22.90;;;14.23;;
25057;SDS011;13057;50.978;11.034;2022-11-20T01:23:31;23.80;;;14.32;;
25057;SDS011;13057;50.978;11.034;2022-11-20T01:25:59;26.13;;;14.40;;
25057;SDS011;13057;50.978;11.034;2022-11-20T01:28:28;25.55;;;14.65;;
25057;SDS011;13057;50.978;11.034;2022-11-20T01:30:54;22.85;;;14.25;;
25057;SDS011;13057;50.978;11.034;2022-11-20T01:33:20;26.73;;;14.73;;
25057;SDS011;13057;50.978;11.034;2022-11-20T01:35:46;22.15;;;13.02;;
25057;SDS011;13057;50.978;11.034;2022-11-20T01:38:12;26.45;;;14.30;;
25057;SDS011;13057;50.978;11.034;2022-11-20T01:40:38;24.58;;;14.43;;
25057;SDS011;13057;50.978;11.034;2022-11-20T01:43:12;23.33;;;14.63;;
25057;SDS011;13057;50.978;11.034;2022-11-20T01:45:50;24.60;;;14.30;;
25057;SDS011;13057;50.978;11.034;2022-11-20T01:48:31;24.67;;;14.27;;
25057;SDS011;13057;50.978;11.034;2022-11-20T01:51:13;25.63;;;14.68;;
25057;SDS011;13057;50.978;11.034;2022-11-20T01:53:44;30.63;;;16.95;;
25057;SDS011;13057;50.978;11.034;2022-11-20T01:56:11;24.00;;;14.13;;
25057;SDS011;13057;50.978;11.034;2022-11-20T01:58:40;21.77;;;13.57;;
25057;SDS011;13057;50.978;11.034;2022-11-20T02:01:13;25.63;;;14.10;;
25057;SDS011;13057;50.978;11.034;2022-11-20T02:03:39;21.08;;;12.82;;
25057;SDS011;13057;50.978;11.034;2022-11-20T02:06:10;24.45;;;12.57;;
25057;SDS011;13057;50.978;11.034;2022-11-20T02:08:44;22.55;;;13.00;;
25057;SDS011;13057;50.978;11.034;2022-11-20T02:11:10;21.05;;;12.10;;
25057;SDS011;13057;50.978;11.034;2022-11-20T02:13:37;20.60;;;12.07;;
25057;SDS011;13057;50.978;11.034;2022-11-20T02:16:09;21.42;;;13.10;;
25057;SDS011;13057;50.978;11.034;2022-11-20T02:18:38;21.40;;;12.75;;
25057;SDS011;13057;50.978;11.034;2022-11-20T02:21:06;21.90;;;13.25;;
25057;SDS011;13057;50.978;11.034;2022-11-20T02:23:39;26.17;;;13.15;;
25057;SDS011;13057;50.978;11.034;2022-11-20T02:26:21;23.20;;;14.10;;
25057;SDS011;13057;50.978;11.034;2022-11-20T02:28:48;23.92;;;13.82;;
25057;SDS011;13057;50.978;11.034;2022-11-20T02:31:15;23.88;;;13.18;;
25057;SDS011;13057;50.978;11.034;2022-11-20T02:33:40;20.25;;;12.00;;
25057;SDS011;13057;50.978;11.034;2022-11-20T02:36:07;19.08;;;12.27;;
25057;SDS011;13057;50.978;11.034;2022-11-20T02:38:36;21.45;;;12.88;;
25057;SDS011;13057;50.978;11.034;2022-11-20T02:41:02;20.63;;;12.20;;
25057;SDS011;13057;50.978;11.034;2022-11-20T02:43:28;19.50;;;12.10;;
25057;SDS011;13057;50.978;11.034;2022-11-20T02:45:53;22.40;;;12.73;;
25057;SDS011;13057;50.978;11.034;2022-11-20T02:48:19;19.50;;;12.82;;
25057;SDS011;13057;50.978;11.034;2022-11-20T02:50:45;25.35;;;13.30;;
25057;SDS011;13057;50.978;11.034;2022-11-20T02:53:11;22.25;;;13.40;;
25057;SDS011;13057;50.978;11.034;2022-11-20T02:55:37;20.55;;;12.60;;
25057;SDS011;13057;50.978;11.034;2022-11-20T02:58:03;23.02;;;13.50;;
25057;SDS011;13057;50.978;11.034;2022-11-20T03:00:29;21.25;;;12.70;;
25057;SDS011;13057;50.978;11.034;2022-11-20T03:02:54;21.70;;;12.15;;
25057;SDS011;13057;50.978;11.034;2022-11-20T03:05:20;20.63;;;12.13;;
25057;SDS011;13057;50.978;11.034;2022-11-20T03:07:46;19.73;;;11.48;;
25057;SDS011;13057;50.978;11.034;2022-11-20T03:10:12;20.80;;;12.43;;
25057;SDS011;13057;50.978;11.034;2022-11-20T03:12:38;20.48;;;12.20;;
25057;SDS011;13057;50.978;11.034;2022-11-20T03:15:03;20.45;;;12.63;;
25057;SDS011;13057;50.978;11.034;2022-11-20T03:17:30;20.25;;;12.00;;
25057;SDS011;13057;50.978;11.034;2022-11-20T03:19:56;19.90;;;12.43;;
25057;SDS011;13057;50.978;11.034;2022-11-20T03:22:21;19.70;;;11.98;;
25057;SDS011;13057;50.978;11.034;2022-11-20T03:24:47;20.42;;;12.10;;
25057;SDS011;13057;50.978;11.034;2022-11-20T03:27:13;19.52;;;11.52;;
25057;SDS011;13057;50.978;11.034;2022-11-20T03:29:39;22.65;;;12.13;;
25057;SDS011;13057;50.978;11.034;2022-11-20T03:32:05;21.77;;;12.95;;
25057;SDS011;13057;50.978;11.034;2022-11-20T03:34:30;20.75;;;11.75;;
25057;SDS011;13057;50.978;11.034;2022-11-20T03:36:57;21.92;;;14.65;;
25057;SDS011;13057;50.978;11.034;2022-11-20T03:39:22;18.23;;;11.32;;
25057;SDS011;13057;50.978;11.034;2022-11-20T03:41:48;18.58;;;11.25;;
25057;SDS011;13057;50.978;11.034;2022-11-20T03:44:14;20.02;;;11.57;;
25057;SDS011;13057;50.978;11.034;2022-11-20T03:46:40;18.90;;;11.40;;
25057;SDS011;13057;50.978;11.034;2022-11-20T03:49:06;19.65;;;11.30;;
25057;SDS011;13057;50.978;11.034;2022-11-20T03:51:32;16.33;;;10.20;;
25057;SDS011;13057;50.978;11.034;2022-11-20T03:54:00;17.88;;;10.95;;
25057;SDS011;13057;50.978;11.034;2022-11-20T03:56:30;16.73;;;10.25;;
25057;SDS011;13057;50.978;11.034;2022-11-20T03:58:58;15.63;;;10.57;;
25057;SDS011;13057;50.978;11.034;2022-11-20T04:01:25;18.25;;;10.50;;
25057;SDS011;13057;50.978;11.034;2022-11-20T04:03:54;16.55;;;10.27;;
25057;SDS011;13057;50.978;11.034;2022-11-20T04:06:23;16.40;;;10.77;;
25057;SDS011;13057;50.978;11.034;2022-11-20T04:08:50;16.45;;;10.45;;
25057;SDS011;13057;50.978;11.034;2022-11-20T04:11:17;17.58;;;10.68;;
25057;SDS011;13057;50.978;11.034;2022-11-20T04:13:46;16.95;;;10.55;;
25057;SDS011;13057;50.978;11.034;2022-11-20T04:16:14;17.95;;;10.70;;
25057;SDS011;13057;50.978;11.034;2022-11-20T04:18:41;19.23;;;10.88;;
25057;SDS011;13057;50.978;11.034;2022-11-20T04:21:07;17.30;;;11.23;;
25057;SDS011;13057;50.978;11.034;2022-11-20T04:23:33;20.45;;;12.60;;
25057;SDS011;13057;50.978;11.034;2022-11-20T04:26:03;18.13;;;11.27;;
25057;SDS011;13057;50.978;11.034;2022-11-20T04:28:31;18.55;;;10.98;;
25057;SDS011;13057;50.978;11.034;2022-11-20T04:31:02;17.50;;;10.68;;
25057;SDS011;13057;50.978;11.034;2022-11-20T04:33:32;19.40;;;11.63;;
25057;SDS011;13057;50.978;11.034;2022-11-20T04:36:00;17.85;;;11.35;;
25057;SDS011;13057;50.978;11.034;2022-11-20T04:38:28;18.70;;;10.98;;
25057;SDS011;13057;50.978;11.034;2022-11-20T04:40:56;18.33;;;11.38;;
25057;SDS011;13057;50.978;11.034;2022-11-20T04:43:23;18.02;;;10.63;;
25057;SDS011;13057;50.978;11.034;2022-11-20T04:45:54;17.42;;;10.57;;
25057;SDS011;13057;50.978;11.034;2022-11-20T04:48:20;20.00;;;10.50;;
25057;SDS011;13057;50.978;11.034;2022-11-20T04:50:47;18.92;;;10.45;;
25057;SDS011;13057;50.978;11.034;2022-11-20T04:53:12;17.67;;;10.55;;
25057;SDS011;13057;50.978;11.034;2022-11-20T04:55:39;17.70;;;10.60;;
25057;SDS011;13057;50.978;11.034;2022-11-20T04:58:05;16.95;;;10.57;;
25057;SDS011;13057;50.978;11.034;2022-11-20T05:00:30;17.05;;;10.68;;
25057;SDS011;13057;50.978;11.034;2022-11-20T05:02:56;17.70;;;10.55;;
25057;SDS011;13057;50.978;11.034;2022-11-20T05:05:22;18.77;;;10.50;;
25057;SDS011;13057;50.978;11.034;2022-11-20T05:07:48;17.42;;;10.40;;
25057;SDS011;13057;50.978;11.034;2022-11-20T05:10:14;16.73;;;10.30;;
25057;SDS011;13057;50.978;11.034;2022-11-20T05:12:40;16.83;;;10.27;;
25057;SDS011;13057;50.978;11.034;2022-11-20T05:15:07;17.10;;;9.50;;
25057;SDS011;13057;50.978;11.034;2022-11-20T05:17:33;16.02;;;9.68;;
25057;SDS011;13057;50.978;11.034;2022-11-20T05:19:59;14.70;;;8.90;;
25057;SDS011;13057;50.978;11.034;2022-11-20T05:22:24;19.73;;;9.65;;
25057;SDS011;13057;50.978;11.034;2022-11-20T05:24:50;14.40;;;8.48;;
25057;SDS011;13057;50.978;11.034;2022-11-20T05:27:16;17.10;;;9.02;;
25057;SDS011;13057;50.978;11.034;2022-11-20T05:29:43;16.60;;;8.60;;
25057;SDS011;13057;50.978;11.034;2022-11-20T05:32:08;15.52;;;8.85;;
25057;SDS011;13057;50.978;11.034;2022-11-20T05:34:35;15.25;;;8.98;;
25057;SDS011;13057;50.978;11.034;2022-11-20T05:37:01;16.60;;;9.18;;
25057;SDS011;13057;50.978;11.034;2022-11-20T05:39:27;15.13;;;9.23;;
25057;SDS011;13057;50.978;11.034;2022-11-20T05:41:53;15.07;;;8.90;;
25057;SDS011;13057;50.978;11.034;2022-11-20T05:44:31;16.95;;;8.98;;
25057;SDS011;13057;50.978;11.034;2022-11-20T05:46:57;13.40;;;8.70;;
25057;SDS011;13057;50.978;11.034;2022-11-20T05:49:23;12.20;;;7.70;;
25057;SDS011;13057;50.978;11.034;2022-11-20T05:51:48;13.57;;;8.15;;
25057;SDS011;13057;50.978;11.034;2022-11-20T05:54:14;12.63;;;8.18;;
25057;SDS011;13057;50.978;11.034;2022-11-20T05:56:40;15.48;;;8.30;;
25057;SDS011;13057;50.978;11.034;2022-11-20T05:59:06;13.52;;;7.80;;
25057;SDS011;13057;50.978;11.034;2022-11-20T06:01:32;13.82;;;9.07;;
25057;SDS011;13057;50.978;11.034;2022-11-20T06:03:58;11.23;;;7.35;;
25057;SDS011;13057;50.978;11.034;2022-11-20T06:06:24;12.70;;;7.90;;
25057;SDS011;13057;50.978;11.034;2022-11-20T06:08:50;10.93;;;7.00;;
25057;SDS011;13057;50.978;11.034;2022-11-20T06:11:16;12.20;;;7.68;;
25057;SDS011;13057;50.978;11.034;2022-11-20T06:13:43;11.93;;;6.88;;
25057;SDS011;13057;50.978;11.034;2022-11-20T06:16:10;12.80;;;7.63;;
25057;SDS011;13057;50.978;11.034;2022-11-20T06:18:38;11.13;;;7.15;;
25057;SDS011;13057;50.978;11.034;2022-11-20T06:21:05;11.30;;;6.53;;
25057;SDS011;13057;50.978;11.034;2022-11-20T06:23:33;13.00;;;7.78;;
25057;SDS011;13057;50.978;11.034;2022-11-20T06:26:02;12.57;;;7.93;;
25057;SDS011;13057;50.978;11.034;2022-11-20T06:28:30;13.70;;;7.72;;
25057;SDS011;13057;50.978;11.034;2022-11-20T06:30:56;13.57;;;7.55;;
25057;SDS011;13057;50.978;11.034;2022-11-20T06:33:23;10.60;;;6.90;;
25057;SDS011;13057;50.978;11.034;2022-11-20T06:35:49;10.88;;;6.80;;
25057;SDS011;13057;50.978;11.034;2022-11-20T06:38:15;11.02;;;7.00;;
25057;SDS011;13057;50.978;11.034;2022-11-20T06:40:41;14.95;;;8.57;;
25057;SDS011;13057;50.978;11.034;2022-11-20T06:43:09;11.80;;;7.25;;
25057;SDS011;13057;50.978;11.034;2022-11-20T06:45:35;11.13;;;6.60;;
25057;SDS011;13057;50.978;11.034;2022-11-20T06:48:01;11.70;;;7.13;;
25057;SDS011;13057;50.978;11.034;2022-11-20T06:50:28;12.82;;;6.85;;
25057;SDS011;13057;50.978;11.034;2022-11-20T06:52:53;10.07;;;6.43;;
25057;SDS011;13057;50.978;11.034;2022-11-20T06:55:19;10.50;;;7.13;;
25057;SDS011;13057;50.978;11.034;2022-11-20T06:57:45;11.48;;;7.07;;
25057;SDS011;13057;50.978;11.034;2022-11-20T07:00:11;11.63;;;7.47;;
25057;SDS011;13057;50.978;11.034;2022-11-20T07:02:37;12.55;;;7.57;;
25057;SDS011;13057;50.978;11.034;2022-11-20T07:05:03;13.32;;;7.13;;
25057;SDS011;13057;50.978;11.034;2022-11-20T07:07:29;12.48;;;7.30;;
25057;SDS011;13057;50.978;11.034;2022-11-20T07:09:55;12.63;;;6.95;;
25057;SDS011;13057;50.978;11.034;2022-11-20T07:12:21;11.23;;;6.65;;
25057;SDS011;13057;50.978;11.034;2022-11-20T07:14:47;13.93;;;8.20;;
25057;SDS011;13057;50.978;11.034;2022-11-20T07:17:13;14.00;;;7.40;;
25057;SDS011;13057;50.978;11.034;2022-11-20T07:19:38;15.30;;;7.53;;
25057;SDS011;13057;50.978;11.034;2022-11-20T07:22:04;13.07;;;6.90;;
25057;SDS011;13057;50.978;11.034;2022-11-20T07:24:30;10.98;;;6.60;;
25057;SDS011;13057;50.978;11.034;2022-11-20T07:26:56;12.70;;;7.72;;
25057;SDS011;13057;50.978;11.034;2022-11-20T07:29:22;11.75;;;7.15;;
25057;SDS011;13057;50.978;11.034;2022-11-20T07:31:47;11.63;;;6.72;;
25057;SDS011;13057;50.978;11.034;2022-11-20T07:34:13;12.75;;;7.35;;
25057;SDS011;13057;50.978;11.034;2022-11-20T07:36:39;12.23;;;6.68;;
25057;SDS011;13057;50.978;11.034;2022-11-20T07:39:05;12.48;;;6.60;;
25057;SDS011;13057;50.978;11.034;2022-11-20T07:41:31;14.23;;;8.18;;
25057;SDS011;13057;50.978;11.034;2022-11-20T07:43:57;14.45;;;8.52;;
25057;SDS011;13057;50.978;11.034;2022-11-20T07:46:23;15.80;;;7.65;;
25057;SDS011;13057;50.978;11.034;2022-11-20T07:48:48;16.63;;;8.50;;
25057;SDS011;13057;50.978;11.034;2022-11-20T07:51:14;12.43;;;7.72;;
25057;SDS011;13057;50.978;11.034;2022-11-20T07:53:40;12.52;;;7.78;;
25057;SDS011;13057;50.978;11.034;2022-11-20T07:56:06;12.57;;;8.63;;
25057;SDS011;13057;50.978;11.034;2022-11-20T07:58:32;11.35;;;7.32;;
25057;SDS011;13057;50.978;11.034;2022-11-20T08:01:04;10.65;;;6.60;;
25057;SDS011;13057;50.978;11.034;2022-11-20T08:03:32;9.07;;;5.72;;
25057;SDS011;13057;50.978;11.034;2022-11-20T08:06:02;11.13;;;6.68;;
25057;SDS011;13057;50.978;11.034;2022-11-20T08:08:29;9.82;;;6.43;;
25057;SDS011;13057;50.978;11.034;2022-11-20T08:10:56;11.75;;;6.28;;
25057;SDS011;13057;50.978;11.034;2022-11-20T08:13:42;11.50;;;6.80;;
25057;SDS011;13057;50.978;11.034;2022-11-20T08:16:20;11.20;;;6.57;;
25057;SDS011;13057;50.978;11.034;2022-11-20T08:18:46;12.82;;;7.15;;
25057;SDS011;13057;50.978;11.034;2022-11-20T08:21:12;12.15;;;7.38;;
25057;SDS011;13057;50.978;11.034;2022-11-20T08:23:38;13.52;;;7.57;;
25057;SDS011;13057;50.978;11.034;2022-11-20T08:26:04;11.32;;;7.18;;
25057;SDS011;13057;50.978;11.034;2022-11-20T08:28:30;13.23;;;7.72;;
25057;SDS011;13057;50.978;11.034;2022-11-20T08:30:59;12.18;;;6.95;;
25057;SDS011;13057;50.978;11.034;2022-11-20T08:33:26;11.85;;;7.05;;
25057;SDS011;13057;50.978;11.034;2022-11-20T08:35:52;12.32;;;7.43;;
25057;SDS011;13057;50.978;11.034;2022-11-20T08:38:17;15.52;;;9.32;;
25057;SDS011;13057;50.978;11.034;2022-11-20T08:40:43;15.10;;;8.52;;
25057;SDS011;13057;50.978;11.034;2022-11-20T08:43:29;16.67;;;8.43;;
25057;SDS011;13057;50.978;11.034;2022-11-20T08:45:56;18.23;;;10.23;;
25057;SDS011;13057;50.978;11.034;2022-11-20T08:48:22;15.25;;;8.57;;
25057;SDS011;13057;50.978;11.034;2022-11-20T08:50:48;15.32;;;8.90;;
25057;SDS011;13057;50.978;11.034;2022-11-20T08:53:14;10.48;;;7.32;;
25057;SDS011;13057;50.978;11.034;2022-11-20T08:55:40;13.95;;;7.60;;
25057;SDS011;13057;50.978;11.034;2022-11-20T08:58:06;15.18;;;8.90;;
25057;SDS011;13057;50.978;11.034;2022-11-20T09:00:32;20.40;;;11.18;;
25057;SDS011;13057;50.978;11.034;2022-11-20T09:02:58;16.45;;;10.13;;
25057;SDS011;13057;50.978;11.034;2022-11-20T09:05:26;19.08;;;10.68;;
25057;SDS011;13057;50.978;11.034;2022-11-20T09:07:55;17.60;;;10.23;;
25057;SDS011;13057;50.978;11.034;2022-11-20T09:10:21;17.27;;;10.25;;
25057;SDS011;13057;50.978;11.034;2022-11-20T09:12:48;17.25;;;9.48;;
25057;SDS011;13057;50.978;11.034;2022-11-20T09:15:15;17.13;;;10.30;;
25057;SDS011;13057;50.978;11.034;2022-11-20T09:17:51;17.50;;;9.77;;
25057;SDS011;13057;50.978;11.034;2022-11-20T09:20:21;14.13;;;9.35;;
25057;SDS011;13057;50.978;11.034;2022-11-20T09:22:48;15.73;;;8.95;;
25057;SDS011;13057;50.978;11.034;2022-11-20T09:25:13;15.30;;;9.00;;
25057;SDS011;13057;50.978;11.034;2022-11-20T09:27:39;19.33;;;10.55;;
25057;SDS011;13057;50.978;11.034;2022-11-20T09:30:08;22.45;;;11.90;;
25057;SDS011;13057;50.978;11.034;2022-11-20T09:32:35;17.23;;;10.57;;
25057;SDS011;13057;50.978;11.034;2022-11-20T09:35:01;17.40;;;10.82;;
25057;SDS011;13057;50.978;11.034;2022-11-20T09:37:27;17.25;;;10.55;;
25057;SDS011;13057;50.978;11.034;2022-11-20T09:39:53;19.90;;;11.10;;
25057;SDS011;13057;50.978;11.034;2022-11-20T09:42:23;17.45;;;10.32;;
25057;SDS011;13057;50.978;11.034;2022-11-20T09:45:13;17.33;;;10.40;;
25057;SDS011;13057;50.978;11.034;2022-11-20T09:48:01;18.33;;;10.10;;
25057;SDS011;13057;50.978;11.034;2022-11-20T09:50:49;17.20;;;9.90;;
25057;SDS011;13057;50.978;11.034;2022-11-20T09:53:32;16.98;;;10.57;;
25057;SDS011;13057;50.978;11.034;2022-11-20T09:56:11;17.20;;;10.23;;
25057;SDS011;13057;50.978;11.034;2022-11-20T09:58:42;16.80;;;10.00;;
25057;SDS011;13057;50.978;11.034;2022-11-20T10:01:12;17.67;;;10.35;;
25057;SDS011;13057;50.978;11.034;2022-11-20T10:03:51;18.17;;;10.32;;
25057;SDS011;13057;50.978;11.034;2022-11-20T10:06:30;19.80;;;11.65;;
25057;SDS011;13057;50.978;11.034;2022-11-20T10:09:06;20.23;;;11.10;;
25057;SDS011;13057;50.978;11.034;2022-11-20T10:11:53;17.33;;;11.90;;
25057;SDS011;13057;50.978;11.034;2022-11-20T10:14:37;18.38;;;11.57;;
25057;SDS011;13057;50.978;11.034;2022-11-20T10:17:36;17.77;;;10.98;;
25057;SDS011;13057;50.978;11.034;2022-11-20T10:23:12;16.02;;;10.18;;
25057;SDS011;13057;50.978;11.034;2022-11-20T10:25:58;19.25;;;11.10;;
25057;SDS011;13057;50.978;11.034;2022-11-20T10:28:32;17.92;;;10.98;;
25057;SDS011;13057;50.978;11.034;2022-11-20T10:31:14;18.15;;;10.68;;
25057;SDS011;13057;50.978;11.034;2022-11-20T10:33:51;18.90;;;10.40;;
25057;SDS011;13057;50.978;11.034;2022-11-20T10:36:25;19.02;;;11.13;;
25057;SDS011;13057;50.978;11.034;2022-11-20T10:38:56;17.15;;;10.63;;
25057;SDS011;13057;50.978;11.034;2022-11-20T10:41:37;17.58;;;10.93;;
25057;SDS011;13057;50.978;11.034;2022-11-20T10:44:11;18.30;;;11.00;;
25057;SDS011;13057;50.978;11.034;2022-11-20T10:47:01;19.90;;;11.63;;
25057;SDS011;13057;50.978;11.034;2022-11-20T10:49:30;20.17;;;11.35;;
25057;SDS011;13057;50.978;11.034;2022-11-20T10:55:06;16.52;;;10.60;;
25057;SDS011;13057;50.978;11.034;2022-11-20T10:57:46;19.73;;;11.45;;
25057;SDS011;13057;50.978;11.034;2022-11-20T11:00:20;20.85;;;11.68;;
25057;SDS011;13057;50.978;11.034;2022-11-20T11:02:47;21.45;;;12.35;;
25057;SDS011;13057;50.978;11.034;2022-11-20T11:05:31;22.05;;;13.02;;
25057;SDS011;13057;50.978;11.034;2022-11-20T11:08:01;22.90;;;11.73;;
25057;SDS011;13057;50.978;11.034;2022-11-20T11:10:43;19.88;;;11.95;;
25057;SDS011;13057;50.978;11.034;2022-11-20T11:13:25;22.35;;;12.57;;
25057;SDS011;13057;50.978;11.034;2022-11-20T11:15:53;24.88;;;13.45;;
25057;SDS011;13057;50.978;11.034;2022-11-20T11:18:23;22.95;;;12.82;;
25057;SDS011;13057;50.978;11.034;2022-11-20T11:20:52;23.38;;;13.13;;
25057;SDS011;13057;50.978;11.034;2022-11-20T11:23:30;24.40;;;13.00;;
25057;SDS011;13057;50.978;11.034;2022-11-20T11:26:02;23.00;;;12.80;;
25057;SDS011;13057;50.978;11.034;2022-11-20T11:28:30;24.20;;;12.73;;
25057;SDS011;13057;50.978;11.034;2022-11-20T11:30:56;22.75;;;12.57;;
25057;SDS011;13057;50.978;11.034;2022-11-20T11:33:24;25.70;;;14.07;;
25057;SDS011;13057;50.978;11.034;2022-11-20T11:35:54;24.05;;;13.20;;
25057;SDS011;13057;50.978;11.034;2022-11-20T11:41:02;24.02;;;13.60;;
25057;SDS011;13057;50.978;11.034;2022-11-20T11:43:31;25.75;;;13.57;;
25057;SDS011;13057;50.978;11.034;2022-11-20T11:46:30;22.88;;;13.32;;
25057;SDS011;13057;50.978;11.034;2022-11-20T11:49:00;23.92;;;13.90;;
25057;SDS011;13057;50.978;11.034;2022-11-20T11:51:47;25.27;;;14.25;;
25057;SDS011;13057;50.978;11.034;2022-11-20T11:54:26;19.73;;;12.73;;
25057;SDS011;13057;50.978;11.034;2022-11-20T11:57:05;26.15;;;15.32;;
25057;SDS011;13057;50.978;11.034;2022-11-20T12:02:25;26.48;;;15.20;;
25057;SDS011;13057;50.978;11.034;2022-11-20T12:05:02;29.70;;;15.60;;
25057;SDS011;13057;50.978;11.034;2022-11-20T12:07:44;25.30;;;14.40;;
25057;SDS011;13057;50.978;11.034;2022-11-20T12:10:20;27.98;;;16.27;;
25057;SDS011;13057;50.978;11.034;2022-11-20T12:12:51;29.45;;;15.57;;
25057;SDS011;13057;50.978;11.034;2022-11-20T12:15:28;34.45;;;15.52;;
25057;SDS011;13057;50.978;11.034;2022-11-20T12:17:56;28.38;;;16.10;;
25057;SDS011;13057;50.978;11.034;2022-11-20T12:20:23;29.88;;;15.05;;
25057;SDS011;13057;50.978;11.034;2022-11-20T12:23:02;29.67;;;15.57;;
25057;SDS011;13057;50.978;11.034;2022-11-20T12:25:35;31.50;;;16.02;;
25057;SDS011;13057;50.978;11.034;2022-11-20T12:28:09;31.38;;;17.48;;
25057;SDS011;13057;50.978;11.034;2022-11-20T12:31:14;32.95;;;17.45;;
25057;SDS011;13057;50.978;11.034;2022-11-20T12:33:54;35.25;;;17.30;;
25057;SDS011;13057;50.978;11.034;2022-11-20T12:36:40;33.53;;;17.23;;
25057;SDS011;13057;50.978;11.034;2022-11-20T12:39:22;36.10;;;16.90;;
25057;SDS011;13057;50.978;11.034;2022-11-20T12:42:01;36.92;;;17.55;;
25057;SDS011;13057;50.978;11.034;2022-11-20T12:45:00;42.47;;;18.48;;
25057;SDS011;13057;50.978;11.034;2022-11-20T12:47:39;43.55;;;18.75;;
25057;SDS011;13057;50.978;11.034;2022-11-20T12:50:44;39.70;;;17.25;;
25057;SDS011;13057;50.978;11.034;2022-11-20T12:55:56;41.97;;;17.83;;
25057;SDS011;13057;50.978;11.034;2022-11-20T12:58:48;41.90;;;19.48;;
25057;SDS011;13057;50.978;11.034;2022-11-20T13:01:40;38.80;;;19.00;;
25057;SDS011;13057;50.978;11.034;2022-11-20T13:07:12;37.00;;;19.35;;
25057;SDS011;13057;50.978;11.034;2022-11-20T13:09:40;35.13;;;18.42;;
25057;SDS011;13057;50.978;11.034;2022-11-20T13:12:23;32.47;;;17.42;;
25057;SDS011;13057;50.978;11.034;2022-11-20T13:15:02;37.13;;;18.35;;
25057;SDS011;13057;50.978;11.034;2022-11-20T13:17:51;37.75;;;18.85;;
25057;SDS011;13057;50.978;11.034;2022-11-20T13:20:22;33.40;;;16.77;;
25057;SDS011;13057;50.978;11.034;2022-11-20T13:22:52;36.70;;;17.35;;
25057;SDS011;13057;50.978;11.034;2022-11-20T13:25:29;36.20;;;17.85;;
25057;SDS011;13057;50.978;11.034;2022-11-20T13:27:58;37.15;;;17.45;;
25057;SDS011;13057;50.978;11.034;2022-11-20T13:30:26;36.85;;;18.45;;
25057;SDS011;13057;50.978;11.034;2022-11-20T13:32:58;38.78;;;18.35;;
25057;SDS011;13057;50.978;11.034;2022-11-20T13:35:34;43.95;;;20.25;;
25057;SDS011;13057;50.978;11.034;2022-11-20T13:38:03;38.80;;;19.25;;
25057;SDS011;13057;50.978;11.034;2022-11-20T13:40:31;36.38;;;17.00;;
25057;SDS011;13057;50.978;11.034;2022-11-20T13:43:26;38.72;;;20.02;;
25057;SDS011;13057;50.978;11.034;2022-11-20T13:45:58;36.15;;;16.55;;
25057;SDS011;13057;50.978;11.034;2022-11-20T13:48:27;41.17;;;18.80;;
25057;SDS011;13057;50.978;11.034;2022-11-20T13:51:14;38.78;;;18.45;;
25057;SDS011;13057;50.978;11.034;2022-11-20T13:56:43;44.10;;;20.23;;
25057;SDS011;13057;50.978;11.034;2022-11-20T13:59:28;40.70;;;19.58;;
25057;SDS011;13057;50.978;11.034;2022-11-20T14:02:05;43.53;;;20.67;;
25057;SDS011;13057;50.978;11.034;2022-11-20T14:04:38;45.53;;;20.13;;
25057;SDS011;13057;50.978;11.034;2022-11-20T14:07:08;39.35;;;18.77;;
25057;SDS011;13057;50.978;11.034;2022-11-20T14:09:35;39.55;;;19.00;;
25057;SDS011;13057;50.978;11.034;2022-11-20T14:12:01;41.10;;;19.40;;
25057;SDS011;13057;50.978;11.034;2022-11-20T14:14:29;41.42;;;19.67;;
25057;SDS011;13057;50.978;11.034;2022-11-20T14:17:06;40.08;;;19.95;;
25057;SDS011;13057;50.978;11.034;2022-11-20T14:19:33;42.15;;;19.17;;
25057;SDS011;13057;50.978;11.034;2022-11-20T14:22:10;35.40;;;18.15;;
25057;SDS011;13057;50.978;11.034;2022-11-20T14:24:44;36.53;;;17.95;;
25057;SDS011;13057;50.978;11.034;2022-11-20T14:27:12;37.88;;;18.40;;
25057;SDS011;13057;50.978;11.034;2022-11-20T14:29:40;37.28;;;17.48;;
25057;SDS011;13057;50.978;11.034;2022-11-20T14:32:08;37.08;;;18.10;;
25057;SDS011;13057;50.978;11.034;2022-11-20T14:34:37;34.08;;;17.10;;
25057;SDS011;13057;50.978;11.034;2022-11-20T14:37:09;40.40;;;16.40;;
25057;SDS011;13057;50.978;11.034;2022-11-20T14:39:40;32.08;;;16.45;;
25057;SDS011;13057;50.978;11.034;2022-11-20T14:42:14;31.17;;;17.05;;
25057;SDS011;13057;50.978;11.034;2022-11-20T14:44:43;34.35;;;16.60;;
25057;SDS011;13057;50.978;11.034;2022-11-20T14:47:11;33.70;;;16.15;;
25057;SDS011;13057;50.978;11.034;2022-11-20T14:49:38;34.80;;;16.08;;
25057;SDS011;13057;50.978;11.034;2022-11-20T14:52:16;32.38;;;15.93;;